»·PEaware :: DAL1216 KSLC-KCOS

DAL1216 :: KSLC-KCOS

FLIGHT INFORMATION

Flight Status: Arrived
Operator:
Delta Air Lines
More flights by this operator :: More flights under this callsign
Pilot: Anonymous 12234 (12234)
Aircraft: BOEING 737-200
(B732)
More flights by this aircraft type
Origin: KSLC Salt Lake City Intl
United States
Destination: KCOS City Of Colorado Springs Mun
United States
More flights between these airports :: More routes between these airports
Route: SLC4 MTU J240 HBU DBRY3
File this flight plan on PilotEdge
Remarks:
Altitude:
(Current/Filed)
29,000ft
Speed:
(Current/Filed)
432kts
Departed: 02-May-18 05:29 PM
Arrived: 02-May-18 06:40 PM
Distance/Time
Traveled:
356nm/1:11
Distance/Time
To Go:
Arrived

Flight Plot

Page will automatically refresh every two minutes.

Flight plan parsing failed; only flown route is shown


Map Options




Map Legend


Flown Route
Filed Route
Departure Airport
Arrival Airport
Navaid (VOR, NDB)
Fix

Horizontal Profiles

Position Reports

Time Latitude Longitude Heading Altitude Ground
Speed
02-May-18 16:59 40.788267 -111.982035 103 4236ft 0kts
02-May-18 17:00 40.788267 -111.982035 103 4236ft 0kts
02-May-18 17:01 40.788267 -111.982035 103 4236ft 0kts
02-May-18 17:02 40.788267 -111.982035 103 4236ft 0kts
02-May-18 17:03 40.788267 -111.982035 103 4236ft 0kts
02-May-18 17:04 40.788267 -111.982035 103 4236ft 0kts
02-May-18 17:05 40.788267 -111.982035 103 4236ft 0kts
02-May-18 17:06 40.788267 -111.982035 103 4236ft 0kts
02-May-18 17:07 40.788267 -111.982035 103 4236ft 0kts
02-May-18 17:08 40.788267 -111.982035 103 4236ft 0kts
02-May-18 17:09 40.788267 -111.982035 103 4236ft 0kts
02-May-18 17:10 40.788267 -111.982035 103 4236ft 0kts
02-May-18 17:11 40.788267 -111.982035 103 4236ft 0kts
02-May-18 17:12 40.788267 -111.982035 103 4236ft 0kts
02-May-18 17:13 40.788267 -111.982035 103 4236ft 0kts
02-May-18 17:14 40.788267 -111.982035 103 4236ft 0kts
02-May-18 17:15 40.788267 -111.982035 103 4236ft 0kts
02-May-18 17:16 40.788266 -111.982030 103 4236ft 0kts
02-May-18 17:17 40.788300 -111.982561 103 4236ft 0kts
02-May-18 17:18 40.788256 -111.982905 6 4236ft 4kts
02-May-18 17:19 40.788380 -111.982888 6 4236ft 0kts
02-May-18 17:20 40.788380 -111.982888 6 4236ft 0kts
02-May-18 17:21 40.788380 -111.982888 6 4236ft 0kts
02-May-18 17:22 40.789514 -111.982691 18 4236ft 13kts
02-May-18 17:23 40.789689 -111.978586 85 4236ft 11kts
02-May-18 17:24 40.789533 -111.977140 149 4236ft 11kts
02-May-18 17:25 40.783770 -111.976355 175 4236ft 27kts
02-May-18 17:26 40.777485 -111.975156 174 4236ft 17kts
02-May-18 17:27 40.774745 -111.974763 156 4236ft 0kts
02-May-18 17:28 40.774679 -111.973696 55 4236ft 13kts
02-May-18 17:29 40.792857 -111.975243 355 4237ft 168kts
02-May-18 17:30 40.846009 -111.984630 353 5833ft 246kts
02-May-18 17:31 40.912069 -111.994205 354 8815ft 253kts
02-May-18 17:32 40.982214 -112.004338 353 10886ft 276kts
02-May-18 17:33 41.039791 -111.961226 84 12987ft 274kts
02-May-18 17:34 41.019679 -111.868859 113 14999ft 278kts
02-May-18 17:35 40.990976 -111.780814 116 16738ft 286kts
02-May-18 17:36 40.954582 -111.681971 122 17530ft 327kts
02-May-18 17:37 40.908904 -111.579514 122 18907ft 342kts
02-May-18 17:38 40.855861 -111.469142 125 19677ft 372kts
02-May-18 17:39 40.800562 -111.359822 125 21276ft 369kts
02-May-18 17:40 40.747654 -111.256722 127 22435ft 373kts
02-May-18 17:41 40.689432 -111.144661 127 23489ft 379kts
02-May-18 17:42 40.628648 -111.034717 128 24428ft 384kts
02-May-18 17:43 40.565662 -110.924423 129 25282ft 389kts
02-May-18 17:43 40.511887 -110.831863 129 25933ft 393kts
02-May-18 17:44 40.446805 -110.719859 129 26648ft 397kts
02-May-18 17:45 40.381348 -110.607213 129 27294ft 401kts
02-May-18 17:47 40.308874 -110.476842 129 28616ft 387kts
02-May-18 17:48 40.266102 -110.349974 112 28921ft 399kts
02-May-18 17:49 40.225901 -110.228123 117 28915ft 404kts
02-May-18 17:50 40.160798 -110.111071 126 28911ft 407kts
02-May-18 17:50 40.104613 -110.016279 126 28911ft 405kts
02-May-18 17:51 40.037403 -109.902197 126 28911ft 402kts
02-May-18 17:52 39.971525 -109.789360 126 28910ft 400kts
02-May-18 17:53 39.909983 -109.674799 123 28907ft 397kts
02-May-18 17:54 39.855410 -109.567369 123 28914ft 396kts
02-May-18 17:55 39.801052 -109.449457 123 28903ft 394kts
02-May-18 17:56 39.754438 -109.328291 123 28939ft 402kts
02-May-18 17:57 39.708486 -109.198275 122 28934ft 422kts
02-May-18 17:58 39.655763 -109.061682 124 28950ft 443kts
02-May-18 17:59 39.594390 -108.922696 129 28947ft 457kts
02-May-18 18:00 39.526658 -108.785522 129 28943ft 464kts
02-May-18 18:01 39.458122 -108.646531 129 28943ft 463kts
02-May-18 18:02 39.391556 -108.523824 133 28980ft 456kts
02-May-18 18:03 39.317281 -108.394694 135 28972ft 451kts
02-May-18 18:04 39.244789 -108.278650 137 28961ft 448kts
02-May-18 18:05 39.165715 -108.159334 141 28964ft 442kts
02-May-18 18:06 39.082385 -108.046424 141 28962ft 441kts
02-May-18 18:07 38.999434 -107.933850 141 29014ft 438kts
02-May-18 18:08 38.917926 -107.819628 139 29018ft 438kts
02-May-18 18:09 38.843850 -107.712740 137 29019ft 436kts
02-May-18 18:10 38.769952 -107.593447 135 29030ft 442kts
02-May-18 18:11 38.698315 -107.472429 132 29030ft 452kts
02-May-18 18:12 38.630294 -107.347288 132 29030ft 458kts
02-May-18 18:13 38.568213 -107.231861 132 29020ft 459kts
02-May-18 18:14 38.500143 -107.104598 128 29016ft 459kts
02-May-18 18:15 38.452085 -106.959865 118 29020ft 466kts
02-May-18 18:16 38.438415 -106.799863 90 29031ft 485kts
02-May-18 18:17 38.446237 -106.634608 95 29019ft 472kts
02-May-18 18:18 38.449004 -106.475879 95 29047ft 462kts
02-May-18 18:19 38.449728 -106.322491 97 29148ft 451kts
02-May-18 18:20 38.443376 -106.176623 102 29178ft 445kts
02-May-18 18:21 38.432428 -106.022109 103 29049ft 454kts
02-May-18 18:22 38.417695 -105.865147 107 29051ft 455kts
02-May-18 18:23 38.383156 -105.715728 117 29062ft 439kts
02-May-18 18:24 38.344045 -105.575730 116 26834ft 425kts
02-May-18 18:25 38.305147 -105.440794 115 24639ft 410kts
02-May-18 18:26 38.277714 -105.310198 104 22552ft 405kts
02-May-18 18:27 38.271500 -105.172296 94 20423ft 400kts
02-May-18 18:28 38.284947 -105.036154 78 18348ft 394kts
02-May-18 18:29 38.310953 -104.907588 79 16465ft 379kts
02-May-18 18:30 38.327416 -104.784781 85 15933ft 341kts
02-May-18 18:31 38.393299 -104.704790 17 13681ft 370kts
02-May-18 18:32 38.487243 -104.684532 357 11403ft 335kts
02-May-18 18:33 38.570731 -104.686194 358 9754ft 278kts
02-May-18 18:34 38.638141 -104.686113 358 8847ft 217kts
02-May-18 18:35 38.688295 -104.685987 358 7860ft 152kts
02-May-18 18:36 38.729914 -104.685947 359 7092ft 153kts
02-May-18 18:37 38.769018 -104.685866 359 6332ft 149kts
02-May-18 18:38 38.798309 -104.685793 357 6104ft 55kts
02-May-18 18:39 38.802625 -104.687172 328 6104ft 0kts
02-May-18 18:40 38.802792 -104.688378 268 6104ft 16kts
02-May-18 18:41 38.802765 -104.696582 266 6104ft 15kts
02-May-18 18:42 38.800579 -104.699134 217 6104ft 14kts
02-May-18 18:43 38.798455 -104.700233 266 6104ft 0kts
02-May-18 18:44 38.798454 -104.700246 266 6104ft 0kts
02-May-18 18:45 38.798454 -104.700246 266 6104ft 0kts
02-May-18 18:46 38.798454 -104.700246 266 6104ft 0kts
02-May-18 18:47 38.798454 -104.700246 266 6104ft 0kts
02-May-18 18:48 38.798454 -104.700246 266 6104ft 0kts
02-May-18 18:49 38.798454 -104.700246 266 6104ft 0kts
02-May-18 18:50 38.798454 -104.700246 266 6104ft 0kts
02-May-18 18:51 38.798454 -104.700246 266 6104ft 0kts
02-May-18 18:52 38.798454 -104.700246 266 6104ft 0kts
02-May-18 18:53 38.798454 -104.700246 266 6104ft 0kts

Navigation Log

Ident Type
Flight plan parsing failed, navigation log unavailable